Time;durP1;ratioP1;P1;durP2;ratioP2;P2;SDS_P1;SDS_P2;PMS_P1;PMS_P2;Temp;Humidity;BMP_temperature;BMP_pressure;BME280_temperature;BME280_humidity;BME280_pressure;Samples;Min_cycle;Max_cycle;Signal;HPM_P1;HPM_P2
2022/08/30 00:01:05;;;;;;;;;;;;;;;23.27;100.00;98166.59;5103959;28;19928;-62
2022/08/30 00:03:36;;;;;;;;;;;;;;;22.85;100.00;98165.94;5100672;28;19947;-63
2022/08/30 00:06:05;;;;;;;;;;;;;;;22.54;100.00;98166.38;5100780;28;19930;-62
2022/08/30 00:08:31;;;;;;;;;;;;;;;22.76;100.00;98173.38;5092446;28;19956;-62
2022/08/30 00:10:58;;;;;;;;;;;;;;;23.33;100.00;98170.69;5092152;28;19976;-63
2022/08/30 00:13:24;;;;;;;;;;;;;;;23.77;100.00;98158.88;5091715;28;19967;-62
2022/08/30 00:15:51;;;;;;;;;;;;;;;24.07;100.00;98165.66;5091865;28;19959;-61
2022/08/30 00:18:18;;;;;;;;;;;;;;;24.17;100.00;98167.91;5091653;28;19920;-62
2022/08/30 00:20:45;;;;;;;;;;;;;;;24.16;100.00;98171.00;5091825;28;19992;-62
2022/08/30 00:23:13;;;;;;;;;;;;;;;24.15;100.00;98161.22;5091802;28;19950;-63
2022/08/30 00:25:39;;;;;;;;;;;;;;;24.07;100.00;98157.47;5107732;28;19931;-62
2022/08/30 00:28:06;;;;;;;;;;;;;;;24.12;100.00;98153.72;5100158;28;19920;-62
2022/08/30 00:30:32;;;;;;;;;;;;;;;23.87;100.00;98152.94;5099951;28;19971;-63
2022/08/30 00:32:59;;;;;;;;;;;;;;;23.49;100.00;98158.78;5100089;28;19924;-63
2022/08/30 00:35:25;;;;;;;;;;;;;;;22.92;100.00;98155.28;5102482;28;19928;-63
2022/08/30 00:37:52;;;;;;;;;;;;;;;23.13;100.00;98153.28;5103399;28;19962;-62
2022/08/30 00:40:20;;;;;;;;;;;;;;;23.54;100.00;98150.38;5101705;28;19935;-62
2022/08/30 00:42:46;;;;;;;;;;;;;;;23.82;100.00;98149.66;5099685;28;19987;-62
2022/08/30 00:45:14;;;;;;;;;;;;;;;23.94;100.00;98152.38;5100527;28;19947;-62
2022/08/30 00:47:40;;;;;;;;;;;;;;;23.98;100.00;98156.00;5103077;28;19932;-63
2022/08/30 00:50:07;;;;;;;;;;;;;;;24.00;100.00;98154.53;5102935;28;19966;-64
2022/08/30 00:52:35;;;;;;;;;;;;;;;24.02;100.00;98160.41;5099721;28;19932;-62
2022/08/30 00:55:02;;;;;;;;;;;;;;;24.02;100.00;98162.34;5111022;28;19924;-62
2022/08/30 00:57:30;;;;;;;;;;;;;;;24.05;100.00;98153.47;5099685;28;19987;-63
2022/08/30 00:59:56;;;;;;;;;;;;;;;24.15;100.00;98161.22;5099470;28;19968;-63
2022/08/30 01:02:23;;;;;;;;;;;;;;;23.57;100.00;98157.88;5101661;28;20337;-63
2022/08/30 01:04:50;;;;;;;;;;;;;;;23.73;100.00;98157.19;5102868;28;19924;-63
2022/08/30 01:07:17;;;;;;;;;;;;;;;23.76;100.00;98160.03;5101141;28;19928;-62
2022/08/30 01:09:43;;;;;;;;;;;;;;;23.78;100.00;98148.75;5099382;28;20408;-63
2022/08/30 01:12:10;;;;;;;;;;;;;;;23.77;100.00;98147.19;5099598;28;19947;-63
2022/08/30 01:14:38;;;;;;;;;;;;;;;23.77;100.00;98136.28;5102658;28;19951;-63
2022/08/30 01:17:05;;;;;;;;;;;;;;;23.82;100.00;98136.03;5102729;28;19924;-63
2022/08/30 01:19:34;;;;;;;;;;;;;;;23.85;100.00;98138.88;5090735;28;20412;-63
2022/08/30 01:22:04;;;;;;;;;;;;;;;23.88;100.00;98142.84;5090631;28;19924;-62
2022/08/30 01:24:32;;;;;;;;;;;;;;;23.83;100.00;98146.59;5101672;28;19928;-62
2022/08/30 01:26:58;;;;;;;;;;;;;;;23.89;100.00;98147.94;5102189;28;19959;-62
2022/08/30 01:29:25;;;;;;;;;;;;;;;23.76;100.00;98151.03;5099591;28;19967;-63
2022/08/30 01:31:52;;;;;;;;;;;;;;;23.70;100.00;98152.41;5098711;28;19963;-63
2022/08/30 01:34:18;;;;;;;;;;;;;;;23.79;100.00;98150.34;5100389;28;19924;-62
2022/08/30 01:36:45;;;;;;;;;;;;;;;23.75;100.00;98149.44;5102327;28;19924;-62
2022/08/30 01:39:13;;;;;;;;;;;;;;;23.71;100.00;98146.59;5101554;28;19924;-63
2022/08/30 01:41:42;;;;;;;;;;;;;;;23.72;100.00;98148.19;5098795;28;19931;-62
2022/08/30 01:44:10;;;;;;;;;;;;;;;23.64;100.00;98144.44;5098997;28;19924;-62
2022/08/30 01:46:37;;;;;;;;;;;;;;;22.70;100.00;98139.34;5102079;28;19951;-63
2022/08/30 01:49:05;;;;;;;;;;;;;;;22.09;100.00;98139.06;5102476;28;19935;-62
2022/08/30 01:51:32;;;;;;;;;;;;;;;22.71;100.00;98140.94;5090063;28;19978;-62
2022/08/30 01:53:59;;;;;;;;;;;;;;;22.98;100.00;98137.59;5095873;28;19935;-62
2022/08/30 01:56:26;;;;;;;;;;;;;;;23.10;100.00;98143.06;5102684;28;19932;-62
2022/08/30 01:58:54;;;;;;;;;;;;;;;22.69;100.00;98149.44;5102151;28;19948;-63
2022/08/30 02:01:23;;;;;;;;;;;;;;;22.31;100.00;98141.44;5099868;28;19978;-63
2022/08/30 02:03:49;;;;;;;;;;;;;;;22.81;100.00;98145.97;5098480;28;19936;-63
2022/08/30 02:06:17;;;;;;;;;;;;;;;23.08;100.00;98148.06;5099681;28;19924;-64
2022/08/30 02:08:43;;;;;;;;;;;;;;;23.23;100.00;98141.94;5101976;28;20015;-63
2022/08/30 02:11:10;;;;;;;;;;;;;;;23.28;100.00;98140.91;5101230;28;19924;-64
2022/08/30 02:13:38;;;;;;;;;;;;;;;23.32;100.00;98144.56;5098469;28;19984;-63
2022/08/30 02:16:08;;;;;;;;;;;;;;;23.29;100.00;98135.13;5098543;28;19921;-63
2022/08/30 02:18:35;;;;;;;;;;;;;;;23.15;100.00;98148.28;5089755;28;19931;-62
2022/08/30 02:21:01;;;;;;;;;;;;;;;23.25;100.00;98136.13;5089917;28;19984;-62
2022/08/30 02:23:28;;;;;;;;;;;;;;;23.28;100.00;98130.81;5089729;28;20361;-63
2022/08/30 02:25:54;;;;;;;;;;;;;;;23.32;100.00;98134.44;5106193;28;19963;-63
2022/08/30 02:28:21;;;;;;;;;;;;;;;23.30;100.00;98142.19;5100232;28;19955;-63
2022/08/30 02:30:47;;;;;;;;;;;;;;;23.30;100.00;98138.66;5101885;28;20370;-62
2022/08/30 02:33:15;;;;;;;;;;;;;;;23.36;100.00;98138.09;5100631;28;19952;-62
2022/08/30 02:35:41;;;;;;;;;;;;;;;23.24;100.00;98135.34;5098519;28;19962;-63
2022/08/30 02:38:09;;;;;;;;;;;;;;;22.99;100.00;98131.78;5098487;28;19952;-63
2022/08/30 02:40:36;;;;;;;;;;;;;;;23.06;100.00;98139.41;5104447;28;19956;-63
2022/08/30 02:43:02;;;;;;;;;;;;;;;22.90;100.00;98133.03;5105772;28;20480;-62
2022/08/30 02:45:29;;;;;;;;;;;;;;;22.68;100.00;98144.34;5102596;28;19963;-63
2022/08/30 02:47:55;;;;;;;;;;;;;;;22.37;100.00;98153.72;5102258;28;19954;-63
2022/08/30 02:50:23;;;;;;;;;;;;;;;22.55;100.00;98144.28;5104330;28;19936;-64
2022/08/30 02:52:49;;;;;;;;;;;;;;;22.25;100.00;98147.44;5105821;28;19924;-63
2022/08/30 02:55:16;;;;;;;;;;;;;;;22.29;100.00;98143.69;5112324;28;19979;-63
2022/08/30 02:57:43;;;;;;;;;;;;;;;21.70;100.00;98147.63;5102018;28;19956;-62
2022/08/30 03:00:12;;;;;;;;;;;;;;;21.74;100.00;98143.94;5102435;28;19924;-63
2022/08/30 03:02:40;;;;;;;;;;;;;;;22.12;100.00;98146.56;5105550;28;19920;-63
2022/08/30 03:05:07;;;;;;;;;;;;;;;22.47;100.00;98142.41;5105224;28;19920;-63
2022/08/30 03:07:34;;;;;;;;;;;;;;;22.34;100.00;98148.94;5101626;28;20006;-62
2022/08/30 03:10:01;;;;;;;;;;;;;;;22.69;100.00;98146.72;5101684;28;19979;-63
2022/08/30 03:12:27;;;;;;;;;;;;;;;22.68;100.00;98149.78;5104459;28;19958;-63
2022/08/30 03:14:54;;;;;;;;;;;;;;;22.75;100.00;98156.25;5105144;28;19925;-63
2022/08/30 03:17:20;;;;;;;;;;;;;;;22.74;100.00;98148.44;5101931;28;19964;-62
2022/08/30 03:19:46;;;;;;;;;;;;;;;22.72;100.00;98156.13;5101409;28;19955;-63
2022/08/30 03:22:13;;;;;;;;;;;;;;;22.77;100.00;98148.56;5102275;28;19925;-62
2022/08/30 03:24:40;;;;;;;;;;;;;;;22.71;100.00;98162.72;5112726;28;19924;-63
2022/08/30 03:27:07;;;;;;;;;;;;;;;22.65;100.00;98155.88;5104625;28;19959;-62
2022/08/30 03:29:34;;;;;;;;;;;;;;;22.73;100.00;98155.00;5101092;28;19956;-62
2022/08/30 03:32:00;;;;;;;;;;;;;;;22.67;100.00;98159.06;5101055;28;19932;-63
2022/08/30 03:34:27;;;;;;;;;;;;;;;22.70;100.00;98148.31;5104134;28;19995;-63
2022/08/30 03:36:54;;;;;;;;;;;;;;;22.65;100.00;98162.16;5104363;28;19959;-63
2022/08/30 03:39:21;;;;;;;;;;;;;;;22.64;100.00;98157.00;5102470;28;19924;-63
2022/08/30 03:41:49;;;;;;;;;;;;;;;22.62;100.00;98167.44;5101116;28;19959;-63
2022/08/30 03:44:15;;;;;;;;;;;;;;;22.63;100.00;98161.63;5102295;28;19959;-62
2022/08/30 03:46:42;;;;;;;;;;;;;;;22.59;100.00;98156.06;5104412;28;20339;-63
2022/08/30 03:49:08;;;;;;;;;;;;;;;22.56;100.00;98164.91;5104160;28;19931;-62
2022/08/30 03:51:35;;;;;;;;;;;;;;;22.53;100.00;98167.47;5100339;28;19995;-62
2022/08/30 03:54:01;;;;;;;;;;;;;;;22.62;100.00;98167.44;5107345;28;20672;-62
2022/08/30 03:56:27;;;;;;;;;;;;;;;22.60;100.00;98176.72;5104677;28;19977;-62
2022/08/30 03:58:55;;;;;;;;;;;;;;;22.59;100.00;98168.91;5104328;28;19952;-63
2022/08/30 04:01:22;;;;;;;;;;;;;;;21.64;100.00;98178.84;5101877;28;19974;-63
2022/08/30 04:03:48;;;;;;;;;;;;;;;21.31;100.00;98174.06;5100826;28;19948;-63
2022/08/30 04:06:14;;;;;;;;;;;;;;;21.35;100.00;98174.97;5101652;28;19925;-63
2022/08/30 04:08:42;;;;;;;;;;;;;;;21.66;100.00;98179.31;5104351;28;19963;-63
2022/08/30 04:11:08;;;;;;;;;;;;;;;22.05;100.00;98178.94;5103922;28;19947;-62
2022/08/30 04:13:35;;;;;;;;;;;;;;;21.98;100.00;98181.38;5100627;28;19928;-62
2022/08/30 04:16:03;;;;;;;;;;;;;;;22.22;100.00;98189.69;5100566;28;19943;-62
2022/08/30 04:18:29;;;;;;;;;;;;;;;21.70;100.00;98197.34;5103566;28;19924;-63
2022/08/30 04:20:56;;;;;;;;;;;;;;;21.07;100.00;98194.72;5103939;28;19920;-62
2022/08/30 04:23:22;;;;;;;;;;;;;;;21.00;100.00;98187.88;5101604;28;19960;-62
2022/08/30 04:25:48;;;;;;;;;;;;;;;21.40;100.00;98188.41;5108293;28;20014;-62
2022/08/30 04:28:15;;;;;;;;;;;;;;;21.84;100.00;98188.97;5101299;28;19932;-62
2022/08/30 04:30:42;;;;;;;;;;;;;;;22.01;100.00;98180.72;5103403;28;20606;-62
2022/08/30 04:33:10;;;;;;;;;;;;;;;22.03;100.00;98181.19;5103086;28;19924;-62
2022/08/30 04:35:36;;;;;;;;;;;;;;;21.96;100.00;98184.44;5100083;28;19963;-62
2022/08/30 04:38:03;;;;;;;;;;;;;;;22.15;100.00;98186.72;5099928;28;19980;-63
2022/08/30 04:40:29;;;;;;;;;;;;;;;22.11;100.00;98187.69;5102917;28;19924;-62
2022/08/30 04:42:56;;;;;;;;;;;;;;;22.16;100.00;98182.84;5103198;28;19920;-62
2022/08/30 04:45:23;;;;;;;;;;;;;;;22.15;100.00;98186.72;5100705;28;19924;-63
2022/08/30 04:47:49;;;;;;;;;;;;;;;22.10;100.00;98184.16;5099496;28;20008;-63
2022/08/30 04:50:18;;;;;;;;;;;;;;;22.14;100.00;98176.94;5100610;28;19955;-63
2022/08/30 04:52:45;;;;;;;;;;;;;;;22.27;100.00;98178.63;5102949;28;19959;-62
2022/08/30 04:55:11;;;;;;;;;;;;;;;22.23;100.00;98187.75;5109927;28;19956;-64
2022/08/30 04:57:39;;;;;;;;;;;;;;;22.40;100.00;98183.00;5099252;28;19960;-63
2022/08/30 05:00:08;;;;;;;;;;;;;;;22.20;100.00;98182.97;5099226;28;19931;-62
2022/08/30 05:02:34;;;;;;;;;;;;;;;22.05;100.00;98190.63;5098558;28;19931;-63
2022/08/30 05:07:51;;;;;;;;;;;;;;;22.06;100.00;98205.78;5088466;28;19925;-62
2022/08/30 05:10:18;;;;;;;;;;;;;;;21.69;100.00;98208.56;5100569;28;19924;-62
2022/08/30 05:12:44;;;;;;;;;;;;;;;21.88;100.00;98220.63;5102804;28;19964;-63
2022/08/30 05:15:11;;;;;;;;;;;;;;;21.92;100.00;98216.13;5102098;28;19967;-62
2022/08/30 05:17:37;;;;;;;;;;;;;;;21.95;100.00;98214.66;5099158;28;19929;-63
2022/08/30 05:20:04;;;;;;;;;;;;;;;21.93;100.00;98216.94;5099238;28;19964;-62
2022/08/30 05:22:30;;;;;;;;;;;;;;;21.99;100.00;98224.56;5102293;28;19985;-62
2022/08/30 05:24:58;;;;;;;;;;;;;;;21.88;100.00;98223.34;5110403;28;19924;-62
2022/08/30 05:27:25;;;;;;;;;;;;;;;21.62;100.00;98222.66;5099874;28;19931;-63
2022/08/30 05:29:51;;;;;;;;;;;;;;;21.30;100.00;98221.34;5098926;28;19956;-63
2022/08/30 05:32:18;;;;;;;;;;;;;;;20.68;100.00;98220.97;5100308;28;19955;-62
2022/08/30 05:34:44;;;;;;;;;;;;;;;20.99;100.00;98221.56;5102373;28;19920;-63
2022/08/30 05:37:10;;;;;;;;;;;;;;;21.18;100.00;98223.94;5101643;28;19987;-62
2022/08/30 05:39:37;;;;;;;;;;;;;;;21.18;100.00;98218.50;5098822;28;20456;-62
2022/08/30 05:42:05;;;;;;;;;;;;;;;20.39;100.00;98221.63;5098878;28;19931;-63
2022/08/30 05:44:31;;;;;;;;;;;;;;;20.41;100.00;98224.81;5102110;28;20075;-62
2022/08/30 05:46:57;;;;;;;;;;;;;;;21.01;100.00;98218.53;5102271;28;20033;-62
2022/08/30 05:49:24;;;;;;;;;;;;;;;21.17;100.00;98225.06;5099853;28;19951;-62
2022/08/30 05:51:50;;;;;;;;;;;;;;;20.41;100.00;98227.53;5098747;28;19925;-63
2022/08/30 05:54:16;;;;;;;;;;;;;;;20.24;100.00;98230.19;5107571;28;19971;-62
2022/08/30 05:56:45;;;;;;;;;;;;;;;20.71;100.00;98225.75;5101998;28;19931;-62
2022/08/30 05:59:13;;;;;;;;;;;;;;;21.09;100.00;98219.66;5101535;28;19928;-63
2022/08/30 06:01:40;;;;;;;;;;;;;;;20.89;100.00;98226.53;5098633;28;19991;-63
2022/08/30 06:04:08;;;;;;;;;;;;;;;21.12;100.00;98229.88;5098822;28;19960;-63
2022/08/30 06:06:37;;;;;;;;;;;;;;;21.58;100.00;98238.03;5098625;28;19964;-62
2022/08/30 06:09:04;;;;;;;;;;;;;;;21.49;100.00;98235.34;5098781;28;20002;-63
2022/08/30 06:11:30;;;;;;;;;;;;;;;21.71;100.00;98234.28;5101967;28;20863;-63
2022/08/30 06:13:57;;;;;;;;;;;;;;;22.02;100.00;98232.06;5103530;28;19971;-62
2022/08/30 06:16:25;;;;;;;;;;;;;;;22.19;100.00;98239.31;5103864;28;19995;-63
2022/08/30 06:18:52;;;;;;;;;;;;;;;21.97;100.00;98239.63;5102694;28;19932;-62
2022/08/30 06:21:20;;;;;;;;;;;;;;;21.85;100.00;98237.56;5104048;28;19959;-63
2022/08/30 06:23:46;;;;;;;;;;;;;;;21.92;100.00;98234.38;5107425;28;19958;-63
2022/08/30 06:26:13;;;;;;;;;;;;;;;21.96;100.00;98224.44;5108678;28;19935;-63
2022/08/30 06:28:39;;;;;;;;;;;;;;;22.11;100.00;98229.28;5105836;28;20033;-63
2022/08/30 06:31:06;;;;;;;;;;;;;;;21.92;100.00;98229.72;5105942;28;19954;-62
2022/08/30 06:33:34;;;;;;;;;;;;;;;22.30;100.00;98237.00;5116018;22;19996;-62
2022/08/30 06:36:01;;;;;;;;;;;;;;;22.59;100.00;98240.44;5061999;28;19963;-61
2022/08/30 06:38:28;;;;;;;;;;;;;;;22.74;100.00;98244.53;5064683;28;19952;-62
2022/08/30 06:40:54;;;;;;;;;;;;;;;22.68;100.00;98243.16;5065391;28;19978;-61
2022/08/30 06:43:20;;;;;;;;;;;;;;;22.66;100.00;98245.38;5063366;28;19960;-62
2022/08/30 06:45:47;;;;;;;;;;;;;;;22.49;100.00;98250.94;5061922;28;19926;-61
2022/08/30 06:48:13;;;;;;;;;;;;;;;22.35;100.00;98242.25;5062554;28;19952;-62
2022/08/30 06:50:41;;;;;;;;;;;;;;;22.64;100.00;98241.38;5065046;28;20015;-63
2022/08/30 06:53:08;;;;;;;;;;;;;;;22.84;100.00;98235.16;5065118;28;19947;-62
2022/08/30 06:55:35;;;;;;;;;;;;;;;22.60;100.00;98239.31;5061442;28;19957;-62
2022/08/30 06:58:01;;;;;;;;;;;;;;;22.87;100.00;98246.16;5061753;28;19975;-61
2022/08/30 07:00:28;;;;;;;;;;;;;;;22.49;100.00;98240.06;5064326;28;19993;-60
2022/08/30 07:02:55;;;;;;;;;;;;;;;22.54;100.00;98231.69;5064921;28;19928;-61
2022/08/30 07:05:22;;;;;;;;;;;;;;;22.44;100.00;98232.88;5062825;28;19935;-61
2022/08/30 07:07:52;;;;;;;;;;;;;;;22.50;100.00;98242.44;5061372;28;19985;-62
2022/08/30 07:10:18;;;;;;;;;;;;;;;22.58;100.00;98227.97;5062767;28;19932;-61
2022/08/30 07:12:44;;;;;;;;;;;;;;;22.59;100.00;98231.50;5064719;28;19975;-62
2022/08/30 07:15:11;;;;;;;;;;;;;;;22.59;100.00;98229.56;5063959;28;19959;-62
2022/08/30 07:20:18;;;;;;;;;;;;;;;22.19;100.00;98220.25;5039387;28;19957;-62
2022/08/30 07:22:45;;;;;;;;;;;;;;;22.06;100.00;98224.81;5064582;28;19948;-62
2022/08/30 07:25:13;;;;;;;;;;;;;;;21.71;100.00;98230.78;5063115;28;19932;-62
2022/08/30 07:27:39;;;;;;;;;;;;;;;21.53;100.00;98225.44;5061166;28;19969;-61
2022/08/30 07:30:06;;;;;;;;;;;;;;;21.87;100.00;98227.19;5060969;28;19936;-62
2022/08/30 07:32:33;;;;;;;;;;;;;;;21.89;100.00;98230.38;5052268;28;20388;-63
2022/08/30 07:34:59;;;;;;;;;;;;;;;21.80;100.00;98234.25;5052591;28;19960;-62
2022/08/30 07:37:25;;;;;;;;;;;;;;;22.00;100.00;98236.25;5052569;28;19961;-63
2022/08/30 07:39:52;;;;;;;;;;;;;;;21.94;100.00;98243.00;5052529;28;19948;-62
2022/08/30 07:42:20;;;;;;;;;;;;;;;21.61;100.00;98244.72;5052190;28;19921;-62
2022/08/30 07:44:46;;;;;;;;;;;;;;;21.62;100.00;98238.97;5052629;28;20018;-62
2022/08/30 07:47:12;;;;;;;;;;;;;;;21.91;100.00;98244.44;5052185;28;20083;-61
2022/08/30 07:49:39;;;;;;;;;;;;;;;22.22;100.00;98246.03;5052284;28;19956;-62
2022/08/30 07:52:05;;;;;;;;;;;;;;;22.18;100.00;98250.53;5052236;28;19925;-61
2022/08/30 07:54:32;;;;;;;;;;;;;;;22.27;100.00;98237.66;5055307;28;19925;-61
2022/08/30 07:56:58;;;;;;;;;;;;;;;22.36;100.00;98239.19;5064020;28;19947;-61
2022/08/30 07:59:26;;;;;;;;;;;;;;;22.49;100.00;98240.88;5061428;28;20003;-61
2022/08/30 08:01:52;;;;;;;;;;;;;;;22.73;100.00;98233.97;5060280;28;19925;-62
2022/08/30 08:04:19;;;;;;;;;;;;;;;22.72;100.00;98237.81;5062032;28;19932;-61
2022/08/30 08:06:45;;;;;;;;;;;;;;;22.78;100.00;98231.03;5063898;28;19959;-62
2022/08/30 08:09:12;;;;;;;;;;;;;;;22.62;100.00;98239.00;5063016;28;19984;-62
2022/08/30 08:11:40;;;;;;;;;;;;;;;22.73;100.00;98239.41;5060237;28;19960;-62
2022/08/30 08:14:06;;;;;;;;;;;;;;;22.66;100.00;98233.69;5060179;28;19929;-62
2022/08/30 08:16:35;;;;;;;;;;;;;;;22.68;100.00;98220.56;5051934;28;19921;-62
2022/08/30 08:19:01;;;;;;;;;;;;;;;22.65;100.00;98222.03;5051962;28;20008;-62
2022/08/30 08:21:27;;;;;;;;;;;;;;;22.50;100.00;98217.94;5052001;28;19929;-62
2022/08/30 08:23:54;;;;;;;;;;;;;;;22.50;100.00;98220.66;5051893;28;19967;-62
2022/08/30 08:26:21;;;;;;;;;;;;;;;22.42;100.00;98224.25;5061951;28;19953;-61
2022/08/30 08:28:48;;;;;;;;;;;;;;;22.55;100.00;98228.66;5063540;28;19992;-62
2022/08/30 08:31:15;;;;;;;;;;;;;;;22.67;100.00;98224.41;5062257;28;19928;-62
2022/08/30 08:33:43;;;;;;;;;;;;;;;22.93;100.00;98223.03;5059894;28;19932;-61
2022/08/30 08:36:09;;;;;;;;;;;;;;;23.10;100.00;98230.22;5060097;28;19925;-62
2022/08/30 08:38:36;;;;;;;;;;;;;;;23.04;100.00;98235.09;5062159;28;20004;-62
2022/08/30 08:41:05;;;;;;;;;;;;;;;23.02;100.00;98231.13;5063374;28;19932;-62
2022/08/30 08:43:33;;;;;;;;;;;;;;;23.13;100.00;98235.00;5059689;28;19967;-62
2022/08/30 08:46:03;;;;;;;;;;;;;;;23.13;100.00;98232.28;5059877;28;19956;-62
2022/08/30 08:48:32;;;;;;;;;;;;;;;23.07;100.00;98223.53;5062604;28;19964;-62
2022/08/30 08:53:51;;;;;;;;;;;;;;;23.32;100.00;98227.09;5059534;28;19932;-62
2022/08/30 08:56:20;;;;;;;;;;;;;;;23.35;100.00;98220.97;5060895;28;20035;-62
2022/08/30 08:58:48;;;;;;;;;;;;;;;23.51;100.00;98226.59;5063217;28;19925;-62
2022/08/30 09:01:15;;;;;;;;;;;;;;;23.44;100.00;98223.63;5061862;28;19955;-62
2022/08/30 09:03:43;;;;;;;;;;;;;;;23.42;100.00;98223.19;5059477;28;19932;-61
2022/08/30 09:06:20;;;;;;;;;;;;;;;23.48;100.00;98217.19;5059748;28;19956;-62
2022/08/30 09:08:46;;;;;;;;;;;;;;;23.50;100.00;98214.09;5063127;28;19984;-61
2022/08/30 09:11:16;;;;;;;;;;;;;;;23.57;100.00;98209.69;5062234;28;19925;-62
2022/08/30 09:13:42;;;;;;;;;;;;;;;23.68;100.00;98210.00;5059136;28;19925;-62
2022/08/30 09:16:09;;;;;;;;;;;;;;;23.78;100.00;98208.75;5059584;28;19981;-61
2022/08/30 09:18:43;;;;;;;;;;;;;;;23.76;100.00;98211.84;5062614;28;20310;-62
2022/08/30 09:21:10;;;;;;;;;;;;;;;23.87;100.00;98212.16;5062153;28;20502;-64
2022/08/30 09:23:47;;;;;;;;;;;;;;;23.97;100.00;98201.59;5059013;28;19979;-62
2022/08/30 09:26:13;;;;;;;;;;;;;;;24.12;100.00;98202.84;5059697;28;20373;-62
2022/08/30 09:28:43;;;;;;;;;;;;;;;24.11;100.00;98206.69;5062349;28;19929;-62
2022/08/30 09:31:18;;;;;;;;;;;;;;;24.28;100.00;98203.72;5061927;28;19976;-61
2022/08/30 09:33:53;;;;;;;;;;;;;;;24.27;100.00;98195.84;5058581;28;20185;-63
2022/08/30 09:36:22;;;;;;;;;;;;;;;24.33;100.00;98187.09;5060311;28;19956;-62
2022/08/30 09:38:59;;;;;;;;;;;;;;;24.40;100.00;98189.22;5062108;28;20233;-62
2022/08/30 09:41:27;;;;;;;;;;;;;;;24.60;100.00;98191.00;5059636;28;19940;-62
2022/08/30 09:44:05;;;;;;;;;;;;;;;24.77;100.00;98187.16;5058477;28;19932;-62
2022/08/30 09:46:31;;;;;;;;;;;;;;;24.71;100.00;98184.69;5061668;28;19925;-61
2022/08/30 09:48:57;;;;;;;;;;;;;;;24.91;100.00;98182.13;5061643;28;19952;-62
2022/08/30 09:51:39;;;;;;;;;;;;;;;24.92;100.00;98175.47;5059685;28;19948;-62
2022/08/30 09:54:11;;;;;;;;;;;;;;;24.81;100.00;98183.41;5058325;28;19964;-61
2022/08/30 09:56:42;;;;;;;;;;;;;;;24.73;100.00;98175.34;5050182;28;19960;-62
2022/08/30 09:59:18;;;;;;;;;;;;;;;24.86;100.00;98185.88;5049571;28;20405;-62
2022/08/30 10:01:48;;;;;;;;;;;;;;;25.05;100.00;98179.75;5050195;28;19925;-62
2022/08/30 10:04:18;;;;;;;;;;;;;;;25.13;100.00;98181.50;5050103;28;19925;-62
2022/08/30 10:06:48;;;;;;;;;;;;;;;25.25;100.00;98175.97;5050288;28;19925;-63
2022/08/30 10:09:22;;;;;;;;;;;;;;;25.39;100.00;98179.06;5050106;28;19984;-62
2022/08/30 10:11:53;;;;;;;;;;;;;;;25.49;100.00;98175.03;5050057;28;20450;-63
2022/08/30 10:14:34;;;;;;;;;;;;;;;25.53;100.00;98173.94;5049793;28;19964;-62
2022/08/30 10:17:03;;;;;;;;;;;;;;;25.64;96.86;98166.81;5049923;28;19983;-61
2022/08/30 10:19:36;;;;;;;;;;;;;;;25.65;97.92;98164.88;5049884;28;19953;-62
2022/08/30 10:22:05;;;;;;;;;;;;;;;25.74;95.60;98168.22;5049812;28;19951;-62
2022/08/30 10:24:35;;;;;;;;;;;;;;;25.65;96.80;98165.66;5057243;28;19928;-62
2022/08/30 10:27:05;;;;;;;;;;;;;;;25.82;94.03;98152.72;5061501;28;19967;-62
2022/08/30 10:29:33;;;;;;;;;;;;;;;25.90;93.87;98160.78;5058300;28;19959;-61
2022/08/30 10:32:02;;;;;;;;;;;;;;;25.97;92.62;98157.38;5057730;28;20013;-62
2022/08/30 10:34:31;;;;;;;;;;;;;;;25.93;92.48;98154.59;5060542;28;19992;-62
2022/08/30 10:37:00;;;;;;;;;;;;;;;25.97;89.85;98147.22;5061271;28;19988;-63
2022/08/30 10:39:31;;;;;;;;;;;;;;;26.09;87.52;98151.81;5058543;28;19924;-62
2022/08/30 10:42:03;;;;;;;;;;;;;;;26.03;87.40;98145.78;5057935;28;19925;-62
2022/08/30 10:44:30;;;;;;;;;;;;;;;26.10;88.43;98134.19;5060667;28;19925;-62
2022/08/30 10:47:04;;;;;;;;;;;;;;;26.17;85.63;98137.13;5061405;28;19925;-63
2022/08/30 10:49:35;;;;;;;;;;;;;;;25.98;87.00;98139.81;5058090;28;19921;-62
2022/08/30 10:52:08;;;;;;;;;;;;;;;26.21;84.87;98129.78;5057833;28;19921;-63
2022/08/30 10:54:38;;;;;;;;;;;;;;;26.30;83.72;98122.16;5057172;28;19959;-62
2022/08/30 10:57:06;;;;;;;;;;;;;;;26.17;84.78;98126.19;5061069;28;20004;-62
2022/08/30 10:59:33;;;;;;;;;;;;;;;26.20;84.49;98119.97;5057632;28;19964;-62
2022/08/30 11:02:10;;;;;;;;;;;;;;;26.24;83.46;98126.34;5060747;28;19926;-63
2022/08/30 11:04:53;;;;;;;;;;;;;;;26.33;82.00;98128.84;5061139;28;19983;-63
2022/08/30 11:07:27;;;;;;;;;;;;;;;26.05;79.91;98118.88;5062815;28;19921;-62
2022/08/30 11:10:03;;;;;;;;;;;;;;;26.17;81.44;98110.53;5064852;28;19956;-62
2022/08/30 11:12:36;;;;;;;;;;;;;;;26.04;81.18;98113.75;5061884;28;19968;-62
2022/08/30 11:15:13;;;;;;;;;;;;;;;26.13;79.96;98117.06;5061284;28;19968;-63
2022/08/30 11:17:43;;;;;;;;;;;;;;;26.19;80.90;98110.16;5052996;28;19925;-61
2022/08/30 11:20:21;;;;;;;;;;;;;;;26.36;78.96;98107.00;5053015;28;19928;-62
2022/08/30 11:23:02;;;;;;;;;;;;;;;26.45;80.66;98102.09;5052945;28;19956;-62
2022/08/30 11:25:43;;;;;;;;;;;;;;;26.78;76.46;98098.78;5060829;28;19997;-62
2022/08/30 11:28:11;;;;;;;;;;;;;;;26.69;73.46;98088.06;5061320;28;19932;-61
2022/08/30 11:30:47;;;;;;;;;;;;;;;26.63;77.33;98092.28;5064507;28;20323;-62
2022/08/30 11:33:39;;;;;;;;;;;;;;;26.73;71.61;98094.41;5062957;28;20425;-61
2022/08/30 11:36:05;;;;;;;;;;;;;;;26.77;69.65;98088.97;5060584;28;20008;-62
2022/08/30 11:39:02;;;;;;;;;;;;;;;26.85;67.45;98079.78;5064021;28;19940;-62
2022/08/30 11:41:30;;;;;;;;;;;;;;;27.09;66.77;98075.84;4999612;28;19930;-62
2022/08/30 11:44:11;;;;;;;;;;;;;;;27.01;63.42;98080.44;5046689;28;20439;-63
2022/08/30 11:46:38;;;;;;;;;;;;;;;27.16;64.19;98078.72;5060255;28;19933;-63
2022/08/30 11:49:26;;;;;;;;;;;;;;;27.26;63.92;98081.63;5060618;28;20297;-62
2022/08/30 11:51:59;;;;;;;;;;;;;;;27.22;67.10;98082.72;5060311;28;19957;-61
2022/08/30 11:54:34;;;;;;;;;;;;;;;27.49;63.73;98087.09;5062387;28;19929;-61
2022/08/30 11:57:03;;;;;;;;;;;;;;;27.38;64.79;98090.81;5063549;28;19932;-62
2022/08/30 11:59:37;;;;;;;;;;;;;;;27.33;65.90;98083.69;5060410;28;19925;-63
2022/08/30 12:02:04;;;;;;;;;;;;;;;27.16;65.87;98084.19;5060093;28;19935;-63
2022/08/30 12:04:42;;;;;;;;;;;;;;;27.22;63.53;98088.22;5063007;28;19932;-62
2022/08/30 12:07:09;;;;;;;;;;;;;;;27.13;66.42;98084.94;5063141;28;19988;-62
2022/08/30 12:10:03;;;;;;;;;;;;;;;27.19;64.65;98081.53;5059973;28;19932;-65
2022/08/30 12:12:52;;;;;;;;;;;;;;;27.10;66.90;98080.19;5063022;28;19925;-64
2022/08/30 12:15:48;;;;;;;;;;;;;;;27.17;67.24;98072.09;5061917;28;19960;-61
2022/08/30 12:18:28;;;;;;;;;;;;;;;27.31;65.05;98080.53;5060910;28;19968;-63
2022/08/30 12:20:55;;;;;;;;;;;;;;;27.27;67.79;98079.66;5063298;28;19984;-63
2022/08/30 12:23:27;;;;;;;;;;;;;;;27.34;66.59;98083.31;5061332;28;20083;-62
2022/08/30 12:26:09;;;;;;;;;;;;;;;27.15;68.57;98080.66;5059531;28;19925;-62
2022/08/30 12:28:36;;;;;;;;;;;;;;;27.23;67.39;98073.34;5051197;28;19925;-62
2022/08/30 12:31:06;;;;;;;;;;;;;;;27.06;68.98;98065.63;5051254;28;19975;-62
2022/08/30 12:33:38;;;;;;;;;;;;;;;27.26;68.55;98080.84;5051153;28;20012;-62
2022/08/30 12:36:04;;;;;;;;;;;;;;;27.40;67.30;98075.56;5051208;28;19961;-62
2022/08/30 12:38:31;;;;;;;;;;;;;;;27.36;68.38;98077.44;5051091;28;19997;-63
2022/08/30 12:41:00;;;;;;;;;;;;;;;27.50;67.36;98074.19;5051411;28;19964;-63
2022/08/30 12:43:27;;;;;;;;;;;;;;;27.41;67.88;98068.13;5051127;28;19936;-62
2022/08/30 12:45:55;;;;;;;;;;;;;;;27.54;67.19;98067.59;5051284;28;19971;-61
2022/08/30 12:48:22;;;;;;;;;;;;;;;27.25;70.62;98065.53;5051002;28;19964;-62
2022/08/30 12:50:52;;;;;;;;;;;;;;;27.29;68.91;98063.66;5051019;28;19991;-62
2022/08/30 12:53:23;;;;;;;;;;;;;;;27.44;69.32;98056.44;5050906;28;19921;-63